Terminal Aerodrome Forecast
Issued by NWS

Home | Current Version | Previous Version | Text Only | Print | Product List | Glossary On
Versions: 1 2 3 4 5 6 7 8 9 10 11 12 13 14 15 16 17 18
000
FTUS43 KEAX 131700
TAFSTJ
TAF
KSTJ 131740Z 1318/1418 18015G23KT P6SM VCTS BKN030CB
     FM132000 01016G26KT 4SM -TSRA OVC025CB
      TEMPO 1320/1322 2SM TSRA BR OVC020CB
     FM132200 35022G32KT 4SM -RA VCTS OVC020CB
     FM140100 35020G30KT P6SM VCSH OVC015
      TEMPO 1404/1408 -RA
     FM140800 35020G30KT P6SM OVC015=

USA.gov is the U.S. government's official web portal to all federal, state and local government web resources and services.